Where is Evora in Portugal?

Evora is a region in Portugal!

Search the name of a city:

Evoredulu, ╔vora, Evormitok, Evorge, ╔vora Monte

Here you will find the location of Evora on a map.
To see how it currently looks like outside, below are some pictures of the area from online web cameras.
You can also find the distance to the main cities in the region and to cities in the rest of Portugal.

All places in the world called .

new

Where is Evora on the map?


Webcams near Evora

Ponte de S˘r > North-East.


Ponte de S˘r > North-East - Day time
Current
Ponte de S˘r > North-East - Current

Comporta: Distrito de - Praia do Carvalhal░.


Comporta: Distrito de - Praia do Carvalhal░ - Day time
Current
Comporta: Distrito de - Praia do Carvalhal░ - Current

Benavente > North-East: AIrport, METAR: BENAV 180005Z 36004KT 17/14 Q1015.


Benavente > North-East: AIrport, METAR: BENAV 180005Z 36004KT 17/14 Q1015 - Day time
Current
Benavente > North-East: AIrport, METAR: BENAV 180005Z 36004KT 17/14 Q1015 - Current

Webcams provided by webcams.travel

Distances

Where is Evora relative to other places?


Top 10 cities in Portugal and distance from Evora.

City # Populationkmmiles
Lisbon151779811471
Porto2249630285177
Amadora317885612477
Braga4121393327203
Set˙bal51171099559
Coimbra6106580180112
Queluz710339812678
Funchal8980411059658
Vila Nova de Gaia970810283176
Loures106623011974

Alerts and advice Portugal

Advice and information about traveling and security in Portugal.

With a travel advise, tourists can be informed about security risks during traveling or vacation in a foreign country. Be informed about the risks of kidnapping, armed robbery, bombings, natural disasters or war. Know which areas are unsafe in Portugalo. Be vigilant, or avoid certain areas when on vacation in Portugal.

Alerts and advice



Travel information Portugal

Information on travel documents, visa applications and the cost of a visa.
Contact information of embassies in Portugal.
Different types of travel insurance.

Travel information